Time;durP1;ratioP1;P1;durP2;ratioP2;P2;SDS_P1;SDS_P2;PMS_P1;PMS_P2;Temp;Humidity;BMP_temperature;BMP_pressure;BME280_temperature;BME280_humidity;BME280_pressure;Samples;Min_cycle;Max_cycle;Signal;HPM_P1;HPM_P2
2022/07/09 00:00:24;;;;;;;6.47;4.38;;;16.20;99.90;;;;;;5112943;28;20168;-68
2022/07/09 00:02:50;;;;;;;5.45;4.07;;;16.20;99.90;;;;;;5114198;28;20208;-68
2022/07/09 00:05:16;;;;;;;6.63;4.30;;;16.20;99.90;;;;;;5114281;28;20204;-68
2022/07/09 00:07:42;;;;;;;9.00;4.15;;;16.10;99.90;;;;;;5112754;28;20168;-68
2022/07/09 00:10:08;;;;;;;6.22;4.68;;;16.10;99.90;;;;;;5114046;28;20189;-68
2022/07/09 00:12:33;;;;;;;5.93;4.38;;;16.00;99.90;;;;;;5113904;28;20169;-68
2022/07/09 00:14:59;;;;;;;8.50;4.18;;;15.90;99.90;;;;;;5112844;28;20191;-68
2022/07/09 00:17:29;;;;;;;6.38;4.05;;;15.90;99.90;;;;;;5112522;28;20710;-69
2022/07/09 00:19:56;;;;;;;6.45;4.20;;;15.80;99.90;;;;;;5113968;28;20204;-68
2022/07/09 00:22:22;;;;;;;7.88;4.55;;;15.80;99.90;;;;;;5114015;28;20168;-68
2022/07/09 00:24:48;;;;;;;6.20;4.15;;;15.80;99.90;;;;;;5112633;28;20621;-68
2022/07/09 00:27:14;;;;;;;4.68;4.15;;;15.70;99.90;;;;;;5114965;28;20247;-68
2022/07/09 00:29:40;;;;;;;5.55;4.18;;;15.70;99.90;;;;;;5116727;28;20195;-68
2022/07/09 00:32:06;;;;;;;7.60;4.10;;;15.60;99.90;;;;;;5116585;28;20172;-68
2022/07/09 00:34:33;;;;;;;6.50;4.38;;;15.60;99.90;;;;;;5117957;28;20638;-68
2022/07/09 00:36:59;;;;;;;5.78;4.72;;;15.60;99.90;;;;;;5116636;28;20255;-68
2022/07/09 00:39:25;;;;;;;4.20;3.80;;;15.60;99.90;;;;;;5116568;28;20192;-68
2022/07/09 00:42:01;;;;;;;4.97;4.20;;;15.60;99.90;;;;;;5118336;27;20187;-68
2022/07/09 00:44:27;;;;;;;7.97;4.43;;;15.60;99.90;;;;;;5118389;28;20675;-68
2022/07/09 00:46:52;;;;;;;6.75;4.47;;;15.60;99.90;;;;;;5118074;28;20180;-68
2022/07/09 00:49:18;;;;;;;6.72;4.03;;;15.60;99.90;;;;;;5117574;28;20192;-68
2022/07/09 00:51:44;;;;;;;6.53;4.50;;;15.50;99.90;;;;;;5117730;28;20229;-68
2022/07/09 00:54:10;;;;;;;5.65;4.32;;;15.50;99.90;;;;;;5116473;28;20181;-68
2022/07/09 00:56:36;;;;;;;9.10;4.93;;;15.50;99.90;;;;;;5116372;28;20241;-68
2022/07/09 00:59:07;;;;;;;5.80;4.43;;;15.50;99.90;;;;;;5117509;28;20233;-68
2022/07/09 01:01:34;;;;;;;6.32;4.15;;;15.50;99.90;;;;;;5116582;28;20579;-68
2022/07/09 01:04:01;;;;;;;9.65;5.22;;;15.40;99.90;;;;;;5115926;28;20544;-68
2022/07/09 01:06:26;;;;;;;6.60;4.55;;;15.40;99.90;;;;;;5117212;28;20196;-68
2022/07/09 01:08:52;;;;;;;5.93;4.10;;;15.30;99.90;;;;;;5117814;28;20189;-68
2022/07/09 01:11:18;;;;;;;6.55;4.30;;;15.30;99.90;;;;;;5117281;28;20179;-68
2022/07/09 01:13:44;;;;;;;5.57;4.25;;;15.30;99.90;;;;;;5115906;28;20200;-68
2022/07/09 01:16:14;;;;;;;6.53;4.30;;;15.20;99.90;;;;;;5115927;28;20198;-68
2022/07/09 01:18:42;;;;;;;6.88;4.15;;;15.20;99.90;;;;;;5115406;28;20223;-68
2022/07/09 01:21:08;;;;;;;8.57;3.88;;;15.10;99.90;;;;;;5117206;28;20217;-68
2022/07/09 01:23:34;;;;;;;7.15;4.38;;;15.10;99.90;;;;;;5117665;28;20176;-68
2022/07/09 01:26:00;;;;;;;6.53;4.55;;;15.10;99.90;;;;;;5116878;28;20668;-68
2022/07/09 01:28:26;;;;;;;6.53;4.53;;;15.10;99.90;;;;;;5115770;28;20555;-68
2022/07/09 01:30:52;;;;;;;8.18;4.50;;;15.00;99.90;;;;;;5116950;28;20172;-68
2022/07/09 01:33:18;;;;;;;6.53;4.80;;;15.00;99.90;;;;;;5116761;28;20205;-68
2022/07/09 01:35:43;;;;;;;10.00;4.97;;;15.00;99.90;;;;;;5115530;28;20199;-68
2022/07/09 01:38:09;;;;;;;7.60;4.35;;;15.00;99.90;;;;;;5116696;28;20192;-68
2022/07/09 01:40:35;;;;;;;8.00;4.93;;;15.00;99.90;;;;;;5117432;28;20196;-68
2022/07/09 01:43:01;;;;;;;6.88;4.55;;;15.00;99.90;;;;;;5117341;28;20176;-68
2022/07/09 01:45:26;;;;;;;6.00;4.82;;;14.90;99.90;;;;;;5116595;28;20253;-68
2022/07/09 01:47:52;;;;;;;7.10;4.82;;;14.90;99.90;;;;;;5116429;28;20208;-68
2022/07/09 01:50:18;;;;;;;7.82;5.20;;;14.90;99.90;;;;;;5115414;28;20183;-68
2022/07/09 01:52:44;;;;;;;7.40;5.05;;;14.90;99.90;;;;;;5115381;27;20176;-68
2022/07/09 01:55:10;;;;;;;7.22;4.60;;;14.80;99.90;;;;;;5116449;28;20183;-68
2022/07/09 01:57:36;;;;;;;6.20;4.78;;;14.80;99.90;;;;;;5116527;28;20172;-68
2022/07/09 02:00:04;;;;;;;6.40;5.20;;;14.80;99.90;;;;;;5115377;28;20222;-68
2022/07/09 02:02:30;;;;;;;7.15;4.95;;;14.70;99.90;;;;;;5116128;28;20179;-68
2022/07/09 02:04:56;;;;;;;6.05;5.20;;;14.70;99.90;;;;;;5116382;28;20196;-68
2022/07/09 02:07:22;;;;;;;8.70;5.20;;;14.60;99.90;;;;;;5116441;28;20168;-68
2022/07/09 02:09:49;;;;;;;7.75;4.82;;;14.60;99.90;;;;;;5116229;28;20192;-68
2022/07/09 02:12:16;;;;;;;5.78;4.22;;;14.60;99.90;;;;;;5116287;28;20261;-68
2022/07/09 02:14:41;;;;;;;6.50;4.93;;;14.50;99.90;;;;;;5116424;28;20206;-68
2022/07/09 02:17:07;;;;;;;10.00;5.50;;;14.50;99.90;;;;;;5116616;28;20199;-69
2022/07/09 02:19:33;;;;;;;8.25;6.38;;;14.50;99.90;;;;;;5115759;28;20658;-68
2022/07/09 02:21:59;;;;;;;10.80;6.22;;;14.50;99.90;;;;;;5114999;28;20710;-68
2022/07/09 02:24:24;;;;;;;8.00;5.40;;;14.50;99.90;;;;;;5116349;28;20595;-68
2022/07/09 02:26:50;;;;;;;10.77;5.38;;;14.50;99.90;;;;;;5117085;28;20172;-68
2022/07/09 02:29:16;;;;;;;7.10;5.70;;;14.50;99.90;;;;;;5115424;28;20208;-68
2022/07/09 02:31:42;;;;;;;8.95;5.55;;;14.50;99.90;;;;;;5115585;28;20176;-68
2022/07/09 02:34:08;;;;;;;9.20;4.97;;;14.40;99.90;;;;;;5115963;28;20175;-68
2022/07/09 02:36:34;;;;;;;6.05;4.55;;;14.30;99.90;;;;;;5114776;28;20169;-68
2022/07/09 02:38:59;;;;;;;6.38;4.72;;;14.20;99.90;;;;;;5115547;28;20196;-68
2022/07/09 02:41:25;;;;;;;5.60;4.53;;;14.20;99.90;;;;;;5115584;28;20172;-68
2022/07/09 02:43:51;;;;;;;4.90;4.40;;;14.00;99.90;;;;;;5115695;28;20672;-68
2022/07/09 02:46:17;;;;;;;5.97;5.07;;;13.90;99.90;;;;;;5114279;28;20208;-68
2022/07/09 02:48:44;;;;;;;5.00;4.50;;;13.90;99.90;;;;;;5113948;28;20790;-68
2022/07/09 02:51:10;;;;;;;6.00;4.80;;;13.90;99.90;;;;;;5115420;28;20166;-68
2022/07/09 02:53:36;;;;;;;6.15;5.00;;;13.90;99.90;;;;;;5114156;28;20172;-68
2022/07/09 02:56:02;;;;;;;6.50;4.97;;;14.00;99.90;;;;;;5114174;28;20625;-68
2022/07/09 02:58:27;;;;;;;7.15;4.93;;;13.90;99.90;;;;;;5115267;28;20234;-68
2022/07/09 03:00:53;;;;;;;7.45;4.60;;;14.00;99.90;;;;;;5115396;28;20168;-68
2022/07/09 03:03:19;;;;;;;8.07;4.97;;;14.00;99.90;;;;;;5115204;28;20251;-68
2022/07/09 03:05:45;;;;;;;7.13;4.68;;;14.00;99.90;;;;;;5115452;28;20257;-68
2022/07/09 03:08:10;;;;;;;6.10;4.72;;;14.00;99.90;;;;;;5114049;28;20196;-68
2022/07/09 03:10:36;;;;;;;8.65;5.15;;;14.10;99.90;;;;;;5115291;28;20178;-68
2022/07/09 03:13:02;;;;;;;6.90;4.82;;;14.10;99.90;;;;;;5115125;28;20629;-68
2022/07/09 03:15:28;;;;;;;5.85;5.00;;;14.10;99.90;;;;;;5113911;28;20611;-68
2022/07/09 03:17:54;;;;;;;5.35;4.85;;;14.20;99.90;;;;;;5114822;27;20563;-68
2022/07/09 03:20:19;;;;;;;5.50;4.60;;;14.20;99.90;;;;;;5113740;28;20548;-68
2022/07/09 03:22:45;;;;;;;7.93;4.90;;;14.20;99.90;;;;;;5115067;28;20234;-68
2022/07/09 03:25:11;;;;;;;5.90;4.38;;;14.30;99.90;;;;;;5114974;28;20200;-68
2022/07/09 03:27:37;;;;;;;5.72;4.75;;;14.30;99.90;;;;;;5114754;28;20192;-68
2022/07/09 03:30:04;;;;;;;6.53;4.50;;;14.30;99.90;;;;;;5114578;27;20270;-68
2022/07/09 03:32:30;;;;;;;6.20;4.60;;;14.30;99.90;;;;;;5113328;28;20168;-68
2022/07/09 03:34:56;;;;;;;6.10;4.85;;;14.30;99.90;;;;;;5114510;28;20183;-68
2022/07/09 03:37:22;;;;;;;6.32;4.60;;;14.30;99.90;;;;;;5115085;28;20163;-68
2022/07/09 03:39:48;;;;;;;6.50;4.68;;;14.20;99.90;;;;;;5114433;28;20192;-68
2022/07/09 03:42:14;;;;;;;6.55;4.70;;;14.20;99.90;;;;;;5114525;28;20267;-68
2022/07/09 03:44:40;;;;;;;7.15;5.30;;;14.20;99.90;;;;;;5113206;28;20195;-68
2022/07/09 03:47:06;;;;;;;5.32;4.65;;;14.30;99.90;;;;;;5114667;28;20180;-68
2022/07/09 03:49:34;;;;;;;8.02;5.07;;;14.40;99.90;;;;;;5112538;28;20673;-68
2022/07/09 03:51:59;;;;;;;10.13;5.40;;;14.40;99.90;;;;;;5113627;28;20188;-68
2022/07/09 03:54:25;;;;;;;6.35;4.68;;;14.40;99.90;;;;;;5115028;28;20169;-68
2022/07/09 03:56:52;;;;;;;6.97;4.80;;;14.50;99.90;;;;;;5112900;28;20172;-68
2022/07/09 03:59:17;;;;;;;9.68;4.80;;;14.60;99.90;;;;;;5112866;28;20688;-68
2022/07/09 04:01:44;;;;;;;7.28;5.07;;;14.60;99.90;;;;;;5113823;28;20265;-68
2022/07/09 04:04:09;;;;;;;5.43;4.80;;;14.70;99.90;;;;;;5113990;28;20177;-68
2022/07/09 04:06:35;;;;;;;7.13;4.88;;;14.70;99.90;;;;;;5114142;28;20558;-68
2022/07/09 04:09:04;;;;;;;7.72;4.90;;;14.80;99.90;;;;;;5114143;28;20192;-68
2022/07/09 04:11:33;;;;;;;6.40;5.50;;;14.80;99.90;;;;;;5114407;28;20193;-68
2022/07/09 04:14:00;;;;;;;7.80;4.80;;;14.90;99.90;;;;;;5114162;28;20607;-68
2022/07/09 04:16:26;;;;;;;7.47;5.13;;;14.90;99.90;;;;;;5114478;28;20531;-68
2022/07/09 04:18:52;;;;;;;9.88;4.68;;;14.90;99.90;;;;;;5113521;28;20619;-68
2022/07/09 04:21:18;;;;;;;7.05;5.38;;;15.00;99.90;;;;;;5113982;28;20168;-68
2022/07/09 04:23:44;;;;;;;6.65;5.32;;;15.00;99.90;;;;;;5112771;28;20180;-68
2022/07/09 04:26:09;;;;;;;6.97;5.03;;;15.00;99.90;;;;;;5114046;28;20681;-68
2022/07/09 04:28:36;;;;;;;7.40;4.93;;;15.00;99.90;;;;;;5114294;28;20556;-68
2022/07/09 04:31:02;;;;;;;7.18;5.40;;;15.00;99.90;;;;;;5113754;28;20164;-68
2022/07/09 04:33:28;;;;;;;8.55;4.88;;;15.00;99.90;;;;;;5114132;28;20175;-68
2022/07/09 04:35:53;;;;;;;6.75;5.32;;;15.10;99.90;;;;;;5112574;28;20184;-68
2022/07/09 04:38:19;;;;;;;7.07;4.97;;;15.10;99.90;;;;;;5112758;28;20225;-68
2022/07/09 04:40:45;;;;;;;6.18;5.10;;;15.20;99.90;;;;;;5113705;28;20224;-68
2022/07/09 04:43:11;;;;;;;7.97;5.75;;;15.20;99.90;;;;;;5112643;28;20263;-68
2022/07/09 04:45:36;;;;;;;8.32;5.28;;;15.20;99.90;;;;;;5112564;28;20620;-68
2022/07/09 04:48:03;;;;;;;6.15;5.32;;;15.20;99.90;;;;;;5113626;28;20261;-68
2022/07/09 04:50:28;;;;;;;6.43;4.95;;;15.20;99.90;;;;;;5112396;28;20267;-68
2022/07/09 04:52:54;;;;;;;7.22;5.72;;;15.20;99.90;;;;;;5113805;28;20242;-68
2022/07/09 04:55:21;;;;;;;8.18;5.18;;;15.20;99.90;;;;;;5112438;28;20176;-68
2022/07/09 04:57:47;;;;;;;9.95;5.88;;;15.30;99.90;;;;;;5112537;28;20184;-68
2022/07/09 05:00:13;;;;;;;10.57;6.03;;;15.40;99.90;;;;;;5113444;28;20200;-68
2022/07/09 05:02:39;;;;;;;9.02;6.40;;;15.40;99.90;;;;;;5113926;28;20207;-68
2022/07/09 05:05:06;;;;;;;9.35;6.35;;;15.40;99.90;;;;;;5113433;28;20626;-67
2022/07/09 05:07:33;;;;;;;6.57;5.93;;;15.50;99.90;;;;;;5113394;28;20184;-67
2022/07/09 05:10:02;;;;;;;11.80;7.72;;;15.50;99.90;;;;;;5113212;28;20286;-67
2022/07/09 05:12:29;;;;;;;13.23;7.68;;;15.60;99.90;;;;;;5113969;28;20171;-67
2022/07/09 05:14:56;;;;;;;12.45;8.00;;;15.60;99.90;;;;;;5116999;28;20557;-67
2022/07/09 05:17:22;;;;;;;13.57;8.38;;;15.70;99.90;;;;;;5117331;28;20214;-68
2022/07/09 05:19:48;;;;;;;10.48;7.53;;;15.70;99.90;;;;;;5116667;28;20598;-67
2022/07/09 05:22:15;;;;;;;13.18;8.93;;;15.80;99.90;;;;;;5116952;28;20180;-68
2022/07/09 05:24:41;;;;;;;13.40;9.35;;;15.90;99.90;;;;;;5116748;28;20204;-68
2022/07/09 05:27:09;;;;;;;12.32;9.20;;;16.00;99.90;;;;;;5115444;28;20195;-68
2022/07/09 05:29:35;;;;;;;14.35;10.00;;;16.10;99.90;;;;;;5115478;28;20199;-69
2022/07/09 05:32:01;;;;;;;10.52;8.38;;;16.20;99.90;;;;;;5115519;28;20204;-68
2022/07/09 05:34:27;;;;;;;13.85;9.93;;;16.20;99.90;;;;;;5116314;28;20177;-68
2022/07/09 05:36:54;;;;;;;15.50;10.32;;;16.20;99.90;;;;;;5115395;28;20184;-68
2022/07/09 05:39:20;;;;;;;16.90;9.93;;;16.30;99.90;;;;;;5116691;28;20192;-68
2022/07/09 05:41:46;;;;;;;14.65;9.27;;;16.30;99.90;;;;;;5116556;28;20183;-68
2022/07/09 05:44:12;;;;;;;14.20;9.00;;;16.40;99.90;;;;;;5116770;28;20168;-68
2022/07/09 05:46:38;;;;;;;15.80;9.20;;;16.50;99.90;;;;;;5116851;28;20220;-68
2022/07/09 05:49:04;;;;;;;16.80;9.68;;;16.70;99.90;;;;;;5115985;28;20205;-68
2022/07/09 05:51:29;;;;;;;14.20;8.98;;;16.70;99.90;;;;;;5116245;28;20637;-68
2022/07/09 05:53:55;;;;;;;11.55;8.60;;;16.80;99.90;;;;;;5116677;28;20180;-68
2022/07/09 05:56:21;;;;;;;12.07;8.27;;;16.90;99.90;;;;;;5116377;28;20169;-68
2022/07/09 05:58:47;;;;;;;11.88;7.95;;;17.00;99.90;;;;;;5114811;28;20227;-68
2022/07/09 06:01:13;;;;;;;8.93;7.35;;;17.10;99.90;;;;;;5116056;28;20169;-68
2022/07/09 06:03:40;;;;;;;11.32;7.68;;;17.20;99.90;;;;;;5116298;28;20539;-68
2022/07/09 06:06:06;;;;;;;15.73;9.88;;;17.30;99.90;;;;;;5115891;28;20207;-68
2022/07/09 06:08:33;;;;;;;12.88;8.65;;;17.40;99.90;;;;;;5115882;28;20254;-68
2022/07/09 06:10:59;;;;;;;10.82;8.20;;;17.60;99.90;;;;;;5116007;28;20285;-68
2022/07/09 06:13:25;;;;;;;10.30;6.45;;;17.70;99.90;;;;;;5116101;28;20232;-68
2022/07/09 06:15:52;;;;;;;10.27;7.30;;;17.70;99.90;;;;;;5115931;28;20255;-68
2022/07/09 06:18:18;;;;;;;10.45;6.63;;;17.90;99.90;;;;;;5115386;28;20208;-68
2022/07/09 06:20:44;;;;;;;11.75;6.60;;;17.90;99.90;;;;;;5114323;28;20215;-68
2022/07/09 06:23:10;;;;;;;8.40;6.55;;;17.90;99.90;;;;;;5117063;28;20168;-68
2022/07/09 06:25:37;;;;;;;8.65;5.25;;;17.90;99.90;;;;;;5113256;28;20218;-68
2022/07/09 06:28:03;;;;;;;8.38;5.13;;;17.90;99.90;;;;;;5116423;28;20165;-67
2022/07/09 06:30:29;;;;;;;8.95;4.95;;;17.90;99.90;;;;;;5114354;28;20175;-67
2022/07/09 06:32:55;;;;;;;6.90;4.63;;;18.00;99.90;;;;;;5115404;28;20172;-67
2022/07/09 06:35:21;;;;;;;6.63;4.43;;;18.00;99.90;;;;;;5113909;28;20183;-67
2022/07/09 06:37:46;;;;;;;5.18;3.85;;;18.00;99.90;;;;;;5115843;28;20613;-67
2022/07/09 06:40:13;;;;;;;4.70;4.03;;;18.00;99.90;;;;;;5113893;28;20203;-69
2022/07/09 06:42:38;;;;;;;8.20;3.80;;;17.90;99.90;;;;;;5115945;28;20184;-69
2022/07/09 06:45:05;;;;;;;4.60;3.58;;;18.00;99.90;;;;;;5116073;28;20200;-69
2022/07/09 06:47:30;;;;;;;4.70;3.40;;;18.00;99.90;;;;;;5115659;28;20199;-69
2022/07/09 06:49:56;;;;;;;3.92;3.20;;;18.20;99.90;;;;;;5114740;28;20227;-69
2022/07/09 06:52:22;;;;;;;3.63;2.95;;;18.30;99.90;;;;;;5115149;28;20188;-69
2022/07/09 06:54:48;;;;;;;4.70;3.13;;;18.30;99.90;;;;;;5114999;28;20218;-69
2022/07/09 06:57:15;;;;;;;7.03;3.83;;;18.30;99.90;;;;;;5113645;28;20275;-69
2022/07/09 06:59:41;;;;;;;5.90;3.60;;;18.30;99.90;;;;;;5115234;28;20226;-69
2022/07/09 07:02:07;;;;;;;9.85;3.60;;;18.40;99.90;;;;;;5115226;28;20161;-69
2022/07/09 07:04:33;;;;;;;4.43;3.47;;;18.50;99.90;;;;;;5114997;28;20169;-69
2022/07/09 07:06:58;;;;;;;3.35;2.88;;;18.50;99.90;;;;;;5116099;28;20585;-69
2022/07/09 07:09:24;;;;;;;6.10;2.97;;;18.50;99.90;;;;;;5115829;28;20200;-69
2022/07/09 07:11:50;;;;;;;5.00;2.95;;;18.60;99.90;;;;;;5113660;28;20169;-69
2022/07/09 07:14:17;;;;;;;2.97;2.50;;;18.60;99.90;;;;;;5114924;27;20543;-69
2022/07/09 07:16:43;;;;;;;3.58;2.53;;;18.60;99.90;;;;;;5115060;28;20172;-69
2022/07/09 07:19:10;;;;;;;3.17;2.88;;;18.60;99.90;;;;;;5112960;28;20220;-69
2022/07/09 07:21:36;;;;;;;2.85;2.30;;;18.60;99.90;;;;;;5114804;28;20176;-69
2022/07/09 07:24:03;;;;;;;4.75;2.22;;;18.60;99.90;;;;;;5114697;28;20161;-69
2022/07/09 07:26:29;;;;;;;2.80;2.22;;;18.60;99.90;;;;;;5114525;28;20656;-69
2022/07/09 07:28:54;;;;;;;3.05;2.30;;;18.60;99.90;;;;;;5115030;28;20199;-68
2022/07/09 07:31:22;;;;;;;4.35;2.30;;;18.60;99.90;;;;;;5114473;28;20683;-69
2022/07/09 07:33:48;;;;;;;6.60;2.42;;;18.70;99.90;;;;;;5112717;28;20231;-69
2022/07/09 07:36:14;;;;;;;4.15;2.22;;;18.70;99.90;;;;;;5114149;28;20230;-69
2022/07/09 07:38:40;;;;;;;3.90;2.22;;;18.90;99.90;;;;;;5114686;28;20200;-69
2022/07/09 07:41:06;;;;;;;2.63;2.42;;;19.10;99.90;;;;;;5113026;28;20172;-69
2022/07/09 07:43:31;;;;;;;2.47;2.10;;;19.30;99.90;;;;;;5114449;28;20176;-69
2022/07/09 07:45:57;;;;;;;2.30;2.17;;;19.50;99.90;;;;;;5114101;28;20192;-69
2022/07/09 07:48:23;;;;;;;2.78;1.88;;;19.50;99.90;;;;;;5113813;28;20195;-70
2022/07/09 07:50:49;;;;;;;2.20;2.00;;;19.40;99.90;;;;;;5113997;28;20169;-69
2022/07/09 07:53:15;;;;;;;2.25;2.00;;;19.50;99.90;;;;;;5114474;28;20224;-69
2022/07/09 07:55:40;;;;;;;3.63;1.88;;;19.70;99.90;;;;;;5114928;28;20228;-69
2022/07/09 07:58:06;;;;;;;2.13;1.80;;;19.70;99.90;;;;;;5114788;28;20631;-69
2022/07/09 08:00:32;;;;;;;2.17;1.80;;;19.70;99.90;;;;;;5114243;28;20197;-69
2022/07/09 08:02:57;;;;;;;3.05;1.90;;;19.80;99.90;;;;;;5114027;28;20203;-69
2022/07/09 08:05:25;;;;;;;2.55;1.90;;;19.90;99.90;;;;;;5113763;28;20291;-69
2022/07/09 08:07:50;;;;;;;1.65;1.50;;;20.00;99.90;;;;;;5114680;28;20160;-69
2022/07/09 08:10:16;;;;;;;1.80;1.70;;;20.00;99.90;;;;;;5113832;28;20196;-69
2022/07/09 08:12:42;;;;;;;2.70;1.75;;;20.00;99.90;;;;;;5113882;28;20265;-69
2022/07/09 08:15:08;;;;;;;2.47;1.73;;;20.10;99.90;;;;;;5113999;28;20181;-69
2022/07/09 08:17:34;;;;;;;2.03;1.80;;;20.10;99.90;;;;;;5114149;28;20660;-69
2022/07/09 08:19:59;;;;;;;1.83;1.58;;;20.10;99.90;;;;;;5113630;28;20208;-69
2022/07/09 08:22:25;;;;;;;1.30;1.30;;;20.20;99.90;;;;;;5112467;28;20271;-69
2022/07/09 08:24:51;;;;;;;1.70;1.60;;;20.20;99.90;;;;;;5113849;28;20571;-69
2022/07/09 08:27:20;;;;;;;1.70;1.60;;;20.10;99.90;;;;;;5114233;28;20492;-68
2022/07/09 08:29:48;;;;;;;1.80;1.70;;;20.00;99.90;;;;;;5114054;28;20216;-69
2022/07/09 08:32:14;;;;;;;2.03;1.88;;;19.90;99.90;;;;;;5114105;28;20564;-72
2022/07/09 08:34:40;;;;;;;2.40;1.60;;;19.90;99.90;;;;;;5113570;28;20165;-73
2022/07/09 08:37:06;;;;;;;1.85;1.70;;;20.00;99.90;;;;;;5114104;28;20171;-67
2022/07/09 08:39:31;;;;;;;1.40;1.30;;;20.20;99.90;;;;;;5112270;28;20700;-67
2022/07/09 08:41:58;;;;;;;3.85;1.52;;;20.20;99.90;;;;;;5114296;28;20165;-66
2022/07/09 08:44:31;;;;;;;2.75;1.55;;;20.30;99.90;;;;;;5114602;28;20183;-67
2022/07/09 08:46:58;;;;;;;1.77;1.63;;;20.30;99.90;;;;;;5115138;28;20160;-67
2022/07/09 08:49:25;;;;;;;2.47;1.60;;;20.40;99.90;;;;;;5116921;28;20675;-67
2022/07/09 08:51:53;;;;;;;2.25;1.30;;;20.50;99.90;;;;;;5116299;28;20176;-66
2022/07/09 08:54:20;;;;;;;1.55;1.30;;;20.70;99.90;;;;;;5117471;28;20584;-67
2022/07/09 08:56:46;;;;;;;1.45;1.23;;;20.90;99.90;;;;;;5117334;28;20176;-67
2022/07/09 08:59:12;;;;;;;3.42;1.20;;;21.10;99.90;;;;;;5116001;28;20575;-68
2022/07/09 09:01:38;;;;;;;2.05;1.30;;;21.20;99.90;;;;;;5115987;28;20204;-68
2022/07/09 09:04:04;;;;;;;1.63;1.50;;;21.30;99.90;;;;;;5115731;28;20176;-68
2022/07/09 09:06:37;;;;;;;1.58;1.48;;;21.20;99.90;;;;;;5116956;28;20283;-68
2022/07/09 09:09:03;;;;;;;3.00;1.35;;;21.30;99.90;;;;;;5117179;28;20188;-68
2022/07/09 09:11:31;;;;;;;1.55;1.45;;;21.20;99.90;;;;;;5117465;28;20183;-69
2022/07/09 09:13:57;;;;;;;1.73;1.50;;;21.30;99.90;;;;;;5117020;28;20168;-69
2022/07/09 09:16:23;;;;;;;3.17;1.65;;;21.30;99.90;;;;;;5115737;28;20181;-69
2022/07/09 09:18:51;;;;;;;1.60;1.50;;;21.40;99.90;;;;;;5115129;28;20254;-68
2022/07/09 09:21:21;;;;;;;2.85;1.70;;;21.50;99.90;;;;;;5117478;28;20192;-68
2022/07/09 09:23:52;;;;;;;1.90;1.70;;;21.50;99.90;;;;;;5117108;28;20172;-68
2022/07/09 09:26:20;;;;;;;2.75;1.90;;;21.60;99.90;;;;;;5117118;28;20188;-68
2022/07/09 09:28:49;;;;;;;2.20;1.67;;;21.70;99.90;;;;;;5116915;28;20195;-68
2022/07/09 09:31:23;;;;;;;2.22;1.63;;;22.00;99.90;;;;;;5116987;28;20580;-68
2022/07/09 09:33:54;;;;;;;3.50;1.70;;;22.30;99.90;;;;;;5116465;28;20163;-68
2022/07/09 09:36:33;;;;;;;3.03;1.65;;;22.20;99.90;;;;;;5116899;28;20632;-72
2022/07/09 09:39:19;;;;;;;1.70;1.60;;;22.30;99.90;;;;;;5116684;28;20661;-72
2022/07/09 09:41:47;;;;;;;2.35;1.60;;;22.40;99.90;;;;;;5116629;28;20206;-68
2022/07/09 09:44:18;;;;;;;1.60;1.50;;;22.40;99.90;;;;;;5116689;28;20199;-68
2022/07/09 09:46:45;;;;;;;1.98;1.73;;;22.30;99.90;;;;;;5116567;28;20712;-68
2022/07/09 09:49:15;;;;;;;3.47;2.00;;;22.20;99.90;;;;;;5116215;28;20664;-68
2022/07/09 09:51:50;;;;;;;5.47;1.98;;;22.10;99.90;;;;;;5116408;28;20277;-68
2022/07/09 09:54:17;;;;;;;4.18;1.90;;;22.00;99.90;;;;;;5116397;28;20160;-69
2022/07/09 09:56:43;;;;;;;3.47;1.95;;;21.90;99.90;;;;;;5116239;28;20203;-69
2022/07/09 09:59:11;;;;;;;8.75;3.42;;;21.80;99.90;;;;;;5116200;28;20245;-69
2022/07/09 10:01:38;;;;;;;5.03;2.20;;;21.80;99.90;;;;;;5116285;28;20157;-69
2022/07/09 10:04:04;;;;;;;3.88;2.20;;;21.70;99.90;;;;;;5115849;28;20271;-69
2022/07/09 10:06:29;;;;;;;10.43;3.78;;;21.60;99.90;;;;;;5114589;28;20724;-69
2022/07/09 10:08:56;;;;;;;4.43;2.20;;;21.60;99.90;;;;;;5116183;28;20275;-69
2022/07/09 10:11:22;;;;;;;4.20;2.10;;;21.60;99.90;;;;;;5114710;28;20168;-69
2022/07/09 10:13:56;;;;;;;4.97;2.55;;;21.70;99.90;;;;;;5115795;28;20165;-69
2022/07/09 10:16:38;;;;;;;4.85;2.33;;;21.80;99.90;;;;;;5115862;28;20172;-69
2022/07/09 10:19:05;;;;;;;3.63;2.05;;;21.90;99.90;;;;;;5114082;28;20224;-68
2022/07/09 10:21:35;;;;;;;3.58;2.13;;;22.00;99.90;;;;;;5115703;28;20177;-69
2022/07/09 10:24:02;;;;;;;3.65;2.13;;;22.00;99.90;;;;;;5115909;28;20172;-67
2022/07/09 10:26:42;;;;;;;2.75;1.90;;;22.00;99.90;;;;;;5115783;28;20676;-67
2022/07/09 10:29:27;;;;;;;5.60;2.22;;;22.10;99.90;;;;;;5115432;28;20227;-67
2022/07/09 10:31:55;;;;;;;2.33;1.70;;;22.10;99.90;;;;;;5115933;28;20640;-67
2022/07/09 10:34:51;;;;;;;2.58;1.70;;;22.10;99.90;;;;;;5115236;28;20176;-67
2022/07/09 10:37:18;;;;;;;7.00;2.03;;;22.20;99.90;;;;;;5115341;28;20183;-67
2022/07/09 10:39:54;;;;;;;2.90;1.95;;;22.10;99.90;;;;;;5115352;28;20203;-67
2022/07/09 10:42:23;;;;;;;3.88;2.05;;;22.10;99.90;;;;;;5114037;28;20266;-67
2022/07/09 10:44:53;;;;;;;3.47;2.20;;;22.00;99.90;;;;;;5115205;28;20161;-67
2022/07/09 10:47:19;;;;;;;4.85;2.38;;;22.00;99.90;;;;;;5115191;28;20161;-67
2022/07/09 10:49:45;;;;;;;3.40;2.13;;;22.00;99.90;;;;;;5113436;28;20618;-67
2022/07/09 10:52:11;;;;;;;1.70;1.60;;;22.00;99.90;;;;;;5115635;28;20168;-67
2022/07/09 10:54:47;;;;;;;2.65;1.65;;;22.00;99.90;;;;;;5115141;28;20198;-67
2022/07/09 10:57:13;;;;;;;2.40;1.80;;;21.90;99.90;;;;;;5115336;28;20171;-67
2022/07/09 10:59:44;;;;;;;3.55;1.80;;;21.90;99.90;;;;;;5115119;28;20237;-66
2022/07/09 11:02:20;;;;;;;2.53;1.88;;;21.80;99.90;;;;;;5115350;28;20157;-66
2022/07/09 11:04:51;;;;;;;5.65;1.83;;;21.80;99.90;;;;;;5114618;28;20195;-67
2022/07/09 11:07:22;;;;;;;1.65;1.55;;;22.00;99.90;;;;;;5114923;28;20633;-67
2022/07/09 11:09:47;;;;;;;3.65;1.58;;;22.20;99.90;;;;;;5114773;28;20253;-67
2022/07/09 11:12:18;;;;;;;3.25;1.60;;;22.40;99.90;;;;;;5114250;28;20574;-67
2022/07/09 11:14:51;;;;;;;2.92;1.95;;;22.60;99.90;;;;;;5114701;28;20641;-67
2022/07/09 11:17:20;;;;;;;2.88;2.05;;;22.70;99.90;;;;;;5114748;28;20548;-68
2022/07/09 11:19:46;;;;;;;1.92;1.67;;;22.80;99.90;;;;;;5114350;28;20532;-67
2022/07/09 11:22:13;;;;;;;3.70;2.10;;;22.80;99.90;;;;;;5114496;28;20685;-67
2022/07/09 11:24:38;;;;;;;2.20;1.90;;;22.80;99.90;;;;;;5114428;28;20177;-67
2022/07/09 11:27:06;;;;;;;6.20;2.30;;;22.70;99.90;;;;;;5113347;28;20245;-67
2022/07/09 11:29:32;;;;;;;5.25;2.30;;;22.60;99.90;;;;;;5114347;28;20211;-67
2022/07/09 11:31:58;;;;;;;2.50;2.08;;;22.60;99.90;;;;;;5114955;28;20169;-67
2022/07/09 11:34:23;;;;;;;2.30;2.10;;;22.80;99.90;;;;;;5114097;28;20176;-67
2022/07/09 11:36:54;;;;;;;3.05;2.35;;;23.00;99.90;;;;;;5114249;28;20172;-67
2022/07/09 11:39:32;;;;;;;4.10;2.40;;;23.20;99.90;;;;;;5114440;28;20249;-67
2022/07/09 11:41:59;;;;;;;5.57;2.75;;;23.20;99.90;;;;;;5114532;28;20161;-67
2022/07/09 11:44:26;;;;;;;3.72;2.45;;;23.30;99.90;;;;;;5114171;28;20172;-67
2022/07/09 11:47:08;;;;;;;5.00;2.58;;;23.40;99.90;;;;;;5113968;28;20223;-67
2022/07/09 11:49:37;;;;;;;5.35;2.80;;;23.70;99.90;;;;;;5112491;28;20207;-68
2022/07/09 11:52:05;;;;;;;3.92;2.38;;;24.00;99.90;;;;;;5114119;28;20161;-67
2022/07/09 11:54:31;;;;;;;4.07;2.60;;;24.00;99.90;;;;;;5114652;28;20171;-67
2022/07/09 11:56:57;;;;;;;5.53;2.72;;;24.20;99.90;;;;;;5114638;28;20168;-67
2022/07/09 11:59:33;;;;;;;5.65;2.90;;;24.30;99.90;;;;;;5114398;28;20604;-67
2022/07/09 12:02:00;;;;;;;4.57;2.60;;;24.30;99.90;;;;;;5114096;28;20176;-68
2022/07/09 12:04:30;;;;;;;6.47;2.90;;;24.30;99.90;;;;;;5112526;28;20199;-68
2022/07/09 12:06:56;;;;;;;5.93;2.92;;;24.20;99.90;;;;;;5114504;28;20184;-68
2022/07/09 12:09:32;;;;;;;4.85;2.53;;;23.90;99.90;;;;;;5113968;28;20606;-67
2022/07/09 12:11:59;;;;;;;4.28;2.72;;;23.60;99.90;;;;;;5113882;28;20176;-68
2022/07/09 12:14:24;;;;;;;4.15;2.85;;;23.30;99.90;;;;;;5113939;28;20211;-68
2022/07/09 12:16:50;;;;;;;3.47;2.78;;;23.00;99.90;;;;;;5114125;28;20524;-68
2022/07/09 12:19:16;;;;;;;3.42;2.80;;;22.70;99.90;;;;;;5113359;28;20223;-68
2022/07/09 12:21:42;;;;;;;4.45;3.05;;;22.50;99.90;;;;;;5113764;28;20221;-68
2022/07/09 12:24:07;;;;;;;5.07;3.45;;;22.30;99.90;;;;;;5116561;28;20198;-67
2022/07/09 12:26:33;;;;;;;6.35;3.25;;;22.20;99.90;;;;;;5116565;28;20204;-67
2022/07/09 12:28:59;;;;;;;7.70;3.78;;;22.00;99.90;;;;;;5118315;28;20241;-66
2022/07/09 12:31:25;;;;;;;4.85;3.35;;;21.90;99.90;;;;;;5117814;28;20167;-66
2022/07/09 12:33:50;;;;;;;11.00;4.60;;;21.60;99.90;;;;;;5118129;28;20153;-66
2022/07/09 12:36:16;;;;;;;17.13;6.88;;;21.40;99.90;;;;;;5117742;28;20179;-69
2022/07/09 12:38:43;;;;;;;7.88;4.88;;;21.20;99.90;;;;;;5118556;28;20184;-69
2022/07/09 12:41:08;;;;;;;7.07;4.30;;;20.40;99.90;;;;;;5117265;28;20181;-67
2022/07/09 12:43:34;;;;;;;7.35;5.20;;;19.50;99.90;;;;;;5118460;28;20183;-67